Time;durP1;ratioP1;P1;durP2;ratioP2;P2;SDS_P1;SDS_P2;PMS_P1;PMS_P2;Temp;Humidity;BMP_temperature;BMP_pressure;BME280_temperature;BME280_humidity;BME280_pressure;Samples;Min_cycle;Max_cycle;Signal;HPM_P1;HPM_P2
2022/05/08 00:01:11;;;;;;;12.23;5.40;;;;;;;21.07;37.67;101450.65;1665970;83;21599;-78
2022/05/08 00:03:37;;;;;;;12.23;5.10;;;;;;;21.07;37.67;101448.70;1687463;83;21019;-78
2022/05/08 00:06:10;;;;;;;13.72;5.05;;;;;;;21.06;37.69;101440.14;1687719;83;21087;-78
2022/05/08 00:08:31;;;;;;;12.37;5.47;;;;;;;21.06;37.68;101438.75;1686817;83;21107;-78
2022/05/08 00:10:57;;;;;;;10.48;5.22;;;;;;;21.05;37.69;101431.58;1687555;85;21659;-78
2022/05/08 00:13:23;;;;;;;10.93;5.22;;;;;;;21.07;37.70;101438.20;1687860;83;21233;-78
2022/05/08 00:15:50;;;;;;;11.43;5.30;;;;;;;21.05;37.70;101428.81;1665684;85;21107;-78
2022/05/08 00:18:16;;;;;;;13.18;5.97;;;;;;;21.05;37.71;101430.78;1687535;83;21095;-79
2022/05/08 00:20:42;;;;;;;12.82;5.58;;;;;;;21.05;37.73;101424.66;1687661;83;21070;-78
2022/05/08 00:23:09;;;;;;;14.07;6.85;;;;;;;21.05;37.71;101429.40;1688062;84;21628;-78
2022/05/08 00:25:35;;;;;;;16.50;6.80;;;;;;;21.04;37.73;101427.19;1687383;83;21533;-78
2022/05/08 00:28:01;;;;;;;14.98;5.90;;;;;;;21.05;37.70;101429.40;1687866;83;21115;-78
2022/05/08 00:30:27;;;;;;;10.20;5.05;;;;;;;21.04;37.72;101433.28;1688100;83;21051;-78
2022/05/08 00:32:53;;;;;;;16.93;7.30;;;;;;;21.04;37.73;101438.26;1687605;83;21510;-78
2022/05/08 00:35:20;;;;;;;14.10;6.35;;;;;;;21.04;37.72;101437.44;1687893;84;21050;-78
2022/05/08 00:37:46;;;;;;;16.45;6.90;;;;;;;21.03;37.72;101428.88;1687784;83;21140;-78
2022/05/08 00:40:12;;;;;;;15.32;6.15;;;;;;;21.04;37.73;101434.11;1687483;83;21450;-78
2022/05/08 00:42:39;;;;;;;13.15;6.00;;;;;;;21.04;37.72;101437.44;1687709;84;21076;-78
2022/05/08 00:45:06;;;;;;;18.12;6.92;;;;;;;21.03;37.72;101431.08;1687316;83;21458;-78
2022/05/08 00:47:32;;;;;;;16.52;6.90;;;;;;;21.04;37.70;101433.28;1687089;84;21538;-78
2022/05/08 00:49:59;;;;;;;14.78;6.00;;;;;;;21.04;37.69;101431.91;1687400;83;21232;-78
2022/05/08 00:52:27;;;;;;;12.78;6.17;;;;;;;21.04;37.70;101426.37;1663596;84;21497;-78
2022/05/08 00:54:53;;;;;;;10.38;5.75;;;;;;;21.03;37.70;101432.45;1686661;84;21090;-78
2022/05/08 00:57:20;;;;;;;12.05;5.55;;;;;;;21.02;37.70;101418.92;1687292;84;21091;-77
2022/05/08 00:59:46;;;;;;;14.43;5.85;;;;;;;21.02;37.69;101422.52;1669301;85;21046;-78
2022/05/08 01:02:12;;;;;;;11.68;5.80;;;;;;;21.01;37.69;101425.02;1664349;84;21176;-78
2022/05/08 01:04:39;;;;;;;11.85;5.25;;;;;;;21.02;37.69;101426.66;1689279;83;21031;-78
2022/05/08 01:07:06;;;;;;;13.50;5.70;;;;;;;21.01;37.69;101431.93;1689070;84;21550;-78
2022/05/08 01:09:32;;;;;;;14.33;5.83;;;;;;;21.01;37.66;101424.19;1686957;85;21135;-77
2022/05/08 01:11:58;;;;;;;11.53;5.65;;;;;;;21.00;37.70;101426.16;1687161;83;21016;-78
2022/05/08 01:14:25;;;;;;;12.35;5.65;;;;;;;21.01;37.68;101433.31;1669011;85;21198;-78
2022/05/08 01:16:51;;;;;;;10.28;5.67;;;;;;;21.01;37.70;101429.72;1686957;84;20943;-78
2022/05/08 01:19:17;;;;;;;13.13;5.92;;;;;;;21.01;37.70;101430.55;1654382;86;21096;-77
2022/05/08 01:21:43;;;;;;;11.80;5.50;;;;;;;21.02;37.70;101432.75;1673105;84;21027;-78
2022/05/08 01:24:11;;;;;;;12.30;5.90;;;;;;;21.01;37.70;101439.41;1675879;84;21060;-78
2022/05/08 01:26:43;;;;;;;11.73;4.70;;;;;;;21.00;37.69;101433.08;1677240;85;21569;-78
2022/05/08 01:29:09;;;;;;;10.82;5.50;;;;;;;21.00;37.70;101436.41;1676845;84;20972;-78
2022/05/08 01:31:35;;;;;;;12.80;5.87;;;;;;;21.00;37.70;101435.84;1676894;84;21072;-78
2022/05/08 01:34:02;;;;;;;11.57;5.10;;;;;;;21.00;37.67;101432.25;1684571;83;21086;-78
2022/05/08 01:36:28;;;;;;;11.85;4.97;;;;;;;20.98;37.67;101438.91;1712300;82;21055;-78
2022/05/08 01:38:56;;;;;;;9.90;5.53;;;;;;;20.98;37.71;101437.52;1703690;84;21845;-78
2022/05/08 01:41:22;;;;;;;12.15;4.95;;;;;;;20.99;37.71;101442.50;1703983;84;21042;-78
2022/05/08 01:43:49;;;;;;;11.45;4.50;;;;;;;20.97;37.71;101435.88;1704010;83;21120;-77
2022/05/08 01:46:15;;;;;;;9.63;4.72;;;;;;;20.98;37.71;101437.52;1703373;84;21087;-78
2022/05/08 01:48:41;;;;;;;11.93;4.75;;;;;;;20.97;37.71;101433.67;1658899;84;21022;-78
2022/05/08 01:51:07;;;;;;;13.45;5.00;;;;;;;20.97;37.71;101432.28;1704042;83;22127;-78
2022/05/08 01:53:34;;;;;;;9.95;4.90;;;;;;;20.96;37.71;101434.22;1703587;84;21075;-78
2022/05/08 01:56:05;;;;;;;11.73;5.65;;;;;;;20.96;37.72;101423.16;1703932;84;21075;-78
2022/05/08 01:58:30;;;;;;;10.98;4.95;;;;;;;20.96;37.71;101419.60;1703838;84;21094;-78
2022/05/08 02:00:57;;;;;;;9.03;4.20;;;;;;;20.96;37.73;101423.16;1703979;83;21081;-78
2022/05/08 02:03:24;;;;;;;10.58;4.67;;;;;;;20.95;37.73;101421.55;1704050;84;21164;-77
2022/05/08 02:05:50;;;;;;;11.40;5.17;;;;;;;20.95;37.73;101427.08;1681621;84;21047;-78
2022/05/08 02:08:17;;;;;;;9.68;4.97;;;;;;;20.96;37.71;101430.66;1703603;83;21452;-78
2022/05/08 02:10:43;;;;;;;10.43;5.03;;;;;;;20.96;37.72;101433.44;1704410;84;21054;-79
2022/05/08 02:13:09;;;;;;;10.90;5.33;;;;;;;20.96;37.73;101430.08;1704658;84;21651;-78
2022/05/08 02:15:35;;;;;;;10.78;5.10;;;;;;;20.95;37.71;101435.38;1704405;83;20990;-78
2022/05/08 02:18:05;;;;;;;11.55;4.50;;;;;;;20.95;37.71;101439.52;1704286;84;21098;-77
2022/05/08 02:20:31;;;;;;;10.35;4.72;;;;;;;20.94;37.71;101436.49;1704549;84;20986;-78
2022/05/08 02:22:58;;;;;;;10.48;5.20;;;;;;;20.95;37.71;101445.06;1704143;84;21099;-79
2022/05/08 02:25:24;;;;;;;13.55;5.42;;;;;;;20.95;37.72;101445.06;1704197;83;21074;-78
2022/05/08 02:27:51;;;;;;;8.45;4.30;;;;;;;20.94;37.70;101449.50;1704246;83;21952;-78
2022/05/08 02:30:22;;;;;;;10.60;4.80;;;;;;;20.95;37.69;101449.20;1704163;83;21541;-78
2022/05/08 02:32:53;;;;;;;9.18;4.47;;;;;;;20.95;37.71;101457.50;1704657;83;21059;-79
2022/05/08 02:35:23;;;;;;;7.78;4.37;;;;;;;20.94;37.71;101451.70;1703995;84;21113;-78
2022/05/08 02:37:53;;;;;;;7.35;4.42;;;;;;;20.94;37.73;101453.09;1703935;84;21070;-78
2022/05/08 02:40:20;;;;;;;;;;;;;;;20.92;37.71;101456.70;1706634;84;21124;-78
2022/05/08 02:42:46;;;;;;;12.03;4.78;;;;;;;20.93;37.69;101453.38;1704110;83;20162;-78
2022/05/08 02:45:18;;;;;;;10.35;5.03;;;;;;;20.91;37.70;101455.09;1703690;84;20986;-79
2022/05/08 02:47:45;;;;;;;11.18;4.70;;;;;;;20.90;37.72;101454.83;1704069;84;21087;-78
2022/05/08 02:50:11;;;;;;;10.13;4.97;;;;;;;20.90;37.74;101452.62;1704138;84;21239;-78
2022/05/08 02:52:39;;;;;;;8.85;4.45;;;;;;;20.90;37.74;101449.29;1703898;84;21090;-78
2022/05/08 03:00:37;;;;;;;9.38;4.25;;;;;;;20.90;37.74;101444.32;1703835;83;21031;-78
2022/05/08 03:03:06;;;;;;;10.38;4.25;;;;;;;20.90;37.71;101445.70;1703825;84;21138;-78
2022/05/08 03:05:33;;;;;;;9.75;4.33;;;;;;;20.88;37.74;101447.37;1703565;83;21931;-78
2022/05/08 03:08:00;;;;;;;9.43;4.78;;;;;;;20.89;37.74;101453.17;1703942;84;21114;-77
2022/05/08 03:10:27;;;;;;;7.95;4.33;;;;;;;20.90;37.72;101452.62;1703826;84;21632;-78
2022/05/08 03:12:54;;;;;;;8.68;4.22;;;;;;;20.88;37.72;101448.76;1704044;84;21071;-78
2022/05/08 03:15:26;;;;;;;9.68;4.25;;;;;;;20.88;37.75;101454.30;1703984;83;21552;-78
2022/05/08 03:17:52;;;;;;;9.80;4.33;;;;;;;20.88;37.76;101454.30;1703720;84;21262;-78
2022/05/08 03:20:19;;;;;;;10.40;4.45;;;;;;;20.89;37.76;101456.50;1704132;84;21525;-78
2022/05/08 03:22:45;;;;;;;9.33;4.42;;;;;;;20.89;37.76;101462.03;1703317;84;21534;-78
2022/05/08 03:25:12;;;;;;;7.87;4.50;;;;;;;20.88;37.76;101458.44;1702660;83;21022;-78
2022/05/08 03:27:38;;;;;;;10.45;4.50;;;;;;;20.88;37.76;101458.44;1703659;84;21774;-78
2022/05/08 03:30:06;;;;;;;9.70;4.65;;;;;;;20.90;37.75;101459.53;1703942;83;21731;-78
2022/05/08 03:32:40;;;;;;;8.70;4.20;;;;;;;20.88;37.75;101459.83;1703871;83;21066;-78
2022/05/08 03:35:07;;;;;;;9.53;4.08;;;;;;;20.88;37.76;101459.00;1707594;83;21038;-78
2022/05/08 03:37:33;;;;;;;10.40;4.55;;;;;;;20.88;37.77;101457.06;1711599;83;21426;-78
2022/05/08 03:39:59;;;;;;;10.45;4.47;;;;;;;20.88;37.76;101466.73;1711537;83;21059;-78
2022/05/08 03:42:26;;;;;;;10.63;4.40;;;;;;;20.87;37.77;101469.27;1681985;83;21586;-78
2022/05/08 03:44:53;;;;;;;8.88;3.95;;;;;;;20.88;37.76;101465.36;1681343;83;21102;-78
2022/05/08 03:47:20;;;;;;;9.23;4.35;;;;;;;20.88;37.77;101464.53;1711377;83;21564;-78
2022/05/08 03:49:46;;;;;;;12.47;4.45;;;;;;;20.88;37.76;101466.73;1711341;83;21043;-78
2022/05/08 03:52:14;;;;;;;9.10;4.05;;;;;;;20.87;37.76;101460.97;1711693;83;21406;-78
2022/05/08 03:54:40;;;;;;;10.60;4.40;;;;;;;20.87;37.73;101462.36;1711235;83;21175;-78
2022/05/08 03:57:07;;;;;;;7.55;3.98;;;;;;;20.88;37.76;101463.14;1711668;83;21539;-78
2022/05/08 03:59:33;;;;;;;6.20;3.62;;;;;;;20.86;37.75;101463.47;1711720;83;21007;-78
2022/05/08 04:01:59;;;;;;;8.20;3.83;;;;;;;20.87;37.73;101465.13;1711521;83;21081;-78
2022/05/08 04:04:25;;;;;;;11.35;4.08;;;;;;;20.87;37.73;101465.68;1711474;83;21386;-78
2022/05/08 04:06:51;;;;;;;9.03;4.28;;;;;;;20.86;37.73;101465.41;1711892;83;21132;-78
2022/05/08 04:09:18;;;;;;;6.97;4.20;;;;;;;20.86;37.74;101470.94;1711166;82;21062;-78
2022/05/08 04:11:44;;;;;;;7.47;4.03;;;;;;;20.87;37.75;101472.03;1711676;83;21530;-78
2022/05/08 04:14:11;;;;;;;7.90;3.83;;;;;;;20.86;37.75;101474.53;1711464;83;21046;-78
2022/05/08 04:16:37;;;;;;;7.40;4.15;;;;;;;20.85;37.73;101474.27;1711508;83;21030;-78
2022/05/08 04:19:06;;;;;;;5.53;3.80;;;;;;;20.85;37.74;101472.89;1711548;83;21037;-79
2022/05/08 04:21:32;;;;;;;8.45;3.62;;;;;;;20.86;37.76;101478.69;1711525;83;21026;-78
2022/05/08 04:26:42;;;;;;;6.53;3.80;;;;;;;20.87;37.76;101480.33;1711639;82;21105;-78
2022/05/08 04:29:08;;;;;;;7.12;4.17;;;;;;;20.87;37.73;101485.86;1711172;83;21533;-78
2022/05/08 04:31:35;;;;;;;6.53;3.98;;;;;;;20.86;37.73;101486.98;1711770;82;21266;-78
2022/05/08 04:34:02;;;;;;;7.45;3.70;;;;;;;20.86;37.76;101486.98;1711505;83;21154;-78
2022/05/08 04:36:29;;;;;;;8.93;3.72;;;;;;;20.86;37.77;101489.75;1711372;83;21121;-78
2022/05/08 04:38:55;;;;;;;8.10;3.95;;;;;;;20.86;37.77;101497.22;1711699;83;21125;-78
2022/05/08 04:41:21;;;;;;;8.28;3.70;;;;;;;20.85;37.78;101493.63;1711679;83;21122;-78
2022/05/08 04:43:47;;;;;;;6.80;3.87;;;;;;;20.86;37.78;101499.98;1711357;83;21540;-78
2022/05/08 04:46:13;;;;;;;7.08;3.90;;;;;;;20.86;37.78;101498.05;1711690;83;21011;-78
2022/05/08 04:48:42;;;;;;;8.65;4.15;;;;;;;20.86;37.78;101496.66;1711584;83;21027;-78
2022/05/08 04:51:08;;;;;;;8.50;4.03;;;;;;;20.85;37.80;101497.78;1711568;83;21106;-78
2022/05/08 04:53:34;;;;;;;7.12;4.00;;;;;;;20.85;37.80;101496.39;1711711;82;20994;-78
2022/05/08 04:56:00;;;;;;;4.90;3.20;;;;;;;20.85;37.79;101498.34;1681396;83;21226;-78
2022/05/08 04:58:29;;;;;;;7.70;4.10;;;;;;;20.86;37.80;101493.07;1711258;83;21039;-78
2022/05/08 05:01:01;;;;;;;10.30;3.83;;;;;;;20.85;37.80;101496.95;1711696;83;21027;-78
2022/05/08 05:03:25;;;;;;;7.05;3.92;;;;;;;20.85;37.83;101497.78;1711126;83;28683;-78
2022/05/08 05:05:52;;;;;;;6.33;3.15;;;;;;;20.85;37.81;101495.02;1711294;83;21074;-78
2022/05/08 05:08:22;;;;;;;6.95;3.47;;;;;;;20.85;37.80;101491.42;1711414;83;21296;-78
2022/05/08 05:10:46;;;;;;;6.58;3.65;;;;;;;20.85;37.83;101492.25;1681442;83;21066;-78
2022/05/08 05:13:12;;;;;;;6.95;3.40;;;;;;;20.86;37.81;101487.54;1681297;83;21105;-78
2022/05/08 05:15:38;;;;;;;6.65;3.77;;;;;;;20.86;37.84;101502.19;1681563;83;20900;-78
2022/05/08 05:18:04;;;;;;;7.25;3.67;;;;;;;20.85;37.83;101496.95;1711480;83;21114;-78
2022/05/08 05:20:30;;;;;;;6.50;3.35;;;;;;;20.87;37.84;101501.64;1711442;82;21348;-78
2022/05/08 05:23:00;;;;;;;8.93;3.42;;;;;;;20.86;37.80;101497.22;1711555;82;21108;-78
2022/05/08 05:25:36;;;;;;;9.08;3.72;;;;;;;20.85;37.83;101500.55;1695159;83;21067;-77
2022/05/08 05:28:03;;;;;;;7.25;3.17;;;;;;;20.86;37.84;101502.19;1707450;83;21623;-73
2022/05/08 05:30:29;;;;;;;5.12;3.25;;;;;;;20.86;37.84;101502.75;1711764;83;21022;-74
2022/05/08 05:32:55;;;;;;;7.65;3.70;;;;;;;20.86;37.85;101502.19;1681575;83;21921;-73
2022/05/08 05:35:21;;;;;;;7.85;3.65;;;;;;;20.86;37.85;101498.60;1713784;83;20907;-74
2022/05/08 05:37:47;;;;;;;6.62;3.27;;;;;;;20.85;37.85;101500.55;1719754;82;21575;-73
2022/05/08 05:40:13;;;;;;;7.58;3.47;;;;;;;20.87;37.84;101503.02;1691169;83;21524;-73
2022/05/08 05:42:39;;;;;;;6.92;3.47;;;;;;;20.87;37.84;101504.41;1719664;83;21025;-74
2022/05/08 05:45:07;;;;;;;8.85;3.10;;;;;;;20.86;37.86;101498.60;1719432;83;21222;-73
2022/05/08 05:50:20;;;;;;;7.60;3.58;;;;;;;20.86;37.85;101499.42;1709386;84;21039;-73
2022/05/08 05:52:46;;;;;;;4.62;2.75;;;;;;;20.87;37.85;101501.64;1709155;83;21504;-73
2022/05/08 05:55:12;;;;;;;7.20;3.45;;;;;;;20.87;37.84;101502.46;1709681;83;21090;-73
2022/05/08 05:57:39;;;;;;;6.25;3.27;;;;;;;20.87;37.85;101500.25;1709116;83;21289;-73
2022/05/08 06:00:13;;;;;;;5.40;3.15;;;;;;;20.86;37.86;101494.45;1709547;82;20950;-73
2022/05/08 06:02:37;;;;;;;5.08;2.70;;;;;;;20.86;37.84;101498.05;1688955;83;21616;-73
2022/05/08 06:05:06;;;;;;;4.65;2.80;;;;;;;20.87;37.85;101498.31;1708692;84;21107;-74
2022/05/08 06:07:34;;;;;;;6.25;3.25;;;;;;;20.87;37.86;101497.48;1709049;82;21094;-75
2022/05/08 06:10:00;;;;;;;7.42;3.22;;;;;;;20.87;37.86;101501.08;1689429;83;21273;-73
2022/05/08 06:12:27;;;;;;;5.90;3.42;;;;;;;20.87;37.85;101504.41;1709217;83;21142;-74
2022/05/08 06:14:53;;;;;;;7.17;3.05;;;;;;;20.87;37.86;101507.17;1709523;83;21403;-73
2022/05/08 06:17:26;;;;;;;6.95;3.30;;;;;;;20.87;37.85;101498.31;1709482;83;21015;-74
2022/05/08 06:19:52;;;;;;;4.70;3.25;;;;;;;20.89;37.84;101499.38;1709347;82;21109;-73
2022/05/08 06:22:18;;;;;;;5.97;3.05;;;;;;;20.87;37.85;101503.84;1709528;82;21232;-73
2022/05/08 06:24:48;;;;;;;7.37;2.98;;;;;;;20.87;37.84;101503.02;1709481;82;21007;-73
2022/05/08 06:27:13;;;;;;;7.92;3.58;;;;;;;20.87;37.82;101503.84;1709014;83;21598;-75
2022/05/08 06:29:39;;;;;;;7.30;3.83;;;;;;;20.88;37.80;101501.87;1709525;83;20883;-74
2022/05/08 06:32:06;;;;;;;5.42;3.20;;;;;;;20.87;37.80;101499.70;1709663;83;21420;-74
2022/05/08 06:34:33;;;;;;;4.87;3.33;;;;;;;20.88;37.79;101497.72;1709235;83;21290;-73
2022/05/08 06:36:59;;;;;;;6.80;3.00;;;;;;;20.88;37.82;101505.46;1706990;82;21102;-74
2022/05/08 06:39:26;;;;;;;7.28;3.47;;;;;;;20.89;37.79;101500.75;1706868;84;21058;-74
2022/05/08 06:41:52;;;;;;;6.95;3.40;;;;;;;20.88;37.79;101501.31;1706786;84;21050;-75
2022/05/08 06:44:18;;;;;;;5.12;2.83;;;;;;;20.88;37.79;101499.93;1706800;83;21058;-74
2022/05/08 06:46:45;;;;;;;6.70;3.47;;;;;;;20.89;37.78;101505.73;1706879;83;21217;-74
2022/05/08 06:49:11;;;;;;;5.65;3.17;;;;;;;20.88;37.76;101501.31;1706448;83;21563;-73
2022/05/08 06:51:37;;;;;;;6.85;2.75;;;;;;;20.89;37.76;101500.75;1707160;83;21077;-73
2022/05/08 06:54:04;;;;;;;6.62;2.95;;;;;;;20.89;37.75;101498.81;1706898;83;21094;-73
2022/05/08 06:56:34;;;;;;;7.00;3.52;;;;;;;20.89;37.75;101497.43;1674799;84;21607;-73
2022/05/08 07:01:43;;;;;;;5.10;2.70;;;;;;;20.90;37.75;101497.70;1707029;83;21083;-74
2022/05/08 07:04:15;;;;;;;5.50;2.87;;;;;;;20.90;37.74;101498.25;1706694;83;21082;-73
2022/05/08 07:06:41;;;;;;;4.95;2.72;;;;;;;20.89;37.74;101496.61;1707049;84;21101;-75
2022/05/08 07:09:07;;;;;;;5.25;3.00;;;;;;;20.89;37.72;101490.52;1686058;84;21046;-74
2022/05/08 07:11:34;;;;;;;4.85;2.70;;;;;;;20.90;37.70;101500.46;1707291;83;21552;-75
2022/05/08 07:14:00;;;;;;;6.75;2.83;;;;;;;20.90;37.70;101493.55;1706917;83;21047;-74
2022/05/08 07:16:26;;;;;;;8.00;3.02;;;;;;;20.90;37.68;101497.70;1706898;83;21477;-74
2022/05/08 07:18:53;;;;;;;5.00;3.17;;;;;;;20.91;37.68;101496.58;1706913;84;21118;-73
2022/05/08 07:21:21;;;;;;;5.55;2.92;;;;;;;20.91;37.67;101495.75;1707154;84;21082;-74
2022/05/08 07:23:48;;;;;;;5.42;3.08;;;;;;;20.91;37.66;101499.34;1706816;84;21259;-73
2022/05/08 07:26:15;;;;;;;4.95;2.60;;;;;;;20.93;37.67;101502.61;1686752;84;21540;-74
2022/05/08 07:28:42;;;;;;;4.92;3.08;;;;;;;20.93;37.66;101503.17;1695887;84;21067;-73
2022/05/08 07:31:08;;;;;;;5.03;3.00;;;;;;;20.93;37.63;101502.61;1701112;83;21077;-72
2022/05/08 07:33:38;;;;;;;5.22;3.27;;;;;;;20.93;37.65;101501.79;1716790;82;20987;-73
2022/05/08 07:36:13;;;;;;;5.17;2.80;;;;;;;20.93;37.63;101492.93;1707983;83;21492;-73
2022/05/08 07:38:45;;;;;;;4.08;2.72;;;;;;;20.93;37.62;101502.61;1709119;82;21146;-72
2022/05/08 07:41:13;;;;;;;4.05;2.62;;;;;;;20.94;37.61;101498.73;1709481;83;21094;-74
2022/05/08 07:43:40;;;;;;;6.35;3.00;;;;;;;20.94;37.61;101499.29;1709603;82;21437;-73
2022/05/08 07:46:06;;;;;;;7.03;3.00;;;;;;;20.95;37.60;101502.32;1709278;82;21821;-73
2022/05/08 07:48:32;;;;;;;4.80;2.60;;;;;;;20.95;37.60;101503.15;1709362;83;21315;-73
2022/05/08 07:51:00;;;;;;;4.05;2.52;;;;;;;20.95;37.60;101503.70;1709378;83;21129;-73
2022/05/08 07:53:30;;;;;;;5.00;2.60;;;;;;;20.95;37.59;101505.91;1709358;82;21074;-73
2022/05/08 07:55:58;;;;;;;5.17;2.72;;;;;;;20.96;37.58;101502.00;1709496;82;21145;-72
2022/05/08 07:58:27;;;;;;;4.37;2.50;;;;;;;20.97;37.59;101502.83;1708823;83;21149;-73
2022/05/08 08:00:53;;;;;;;5.62;2.77;;;;;;;20.97;37.58;101509.19;1708811;82;21082;-72
2022/05/08 08:03:22;;;;;;;6.17;2.70;;;;;;;20.96;37.61;101508.91;1708056;82;21074;-74
2022/05/08 08:05:48;;;;;;;4.62;2.47;;;;;;;20.95;37.66;101505.91;1708174;83;21359;-73
2022/05/08 08:08:17;;;;;;;4.83;2.85;;;;;;;20.96;37.67;101510.30;1708493;83;21168;-73
2022/05/08 08:10:44;;;;;;;5.05;2.60;;;;;;;20.96;37.64;101511.68;1709453;83;21074;-73
2022/05/08 08:13:10;;;;;;;4.42;2.55;;;;;;;20.96;37.65;101507.53;1709263;82;21962;-74
2022/05/08 08:15:36;;;;;;;4.72;3.05;;;;;;;20.97;37.63;101520.25;1708293;83;20999;-72
2022/05/08 08:18:03;;;;;;;9.48;3.05;;;;;;;20.97;37.64;101517.48;1709038;82;21599;-74
2022/05/08 08:20:30;;;;;;;6.75;2.80;;;;;;;20.99;37.63;101522.72;1708497;82;21066;-74
2022/05/08 08:22:56;;;;;;;6.72;2.67;;;;;;;20.98;37.64;101517.75;1708437;82;21042;-73
2022/05/08 08:25:22;;;;;;;5.03;2.50;;;;;;;21.01;37.63;101519.63;1709151;83;21172;-72
2022/05/08 08:27:48;;;;;;;7.25;2.35;;;;;;;21.00;37.66;101509.72;1708718;83;21114;-74
2022/05/08 08:30:14;;;;;;;6.05;2.77;;;;;;;21.01;37.66;101520.45;1707910;83;21545;-74
2022/05/08 08:32:40;;;;;;;6.45;3.08;;;;;;;21.02;37.65;101511.59;1708650;82;21046;-74
2022/05/08 08:35:08;;;;;;;5.47;2.90;;;;;;;21.02;37.65;101515.19;1708650;83;36057;-74
2022/05/08 08:37:34;;;;;;;4.47;2.40;;;;;;;21.03;37.64;101513.25;1710509;83;21144;-73
2022/05/08 08:40:01;;;;;;;5.25;2.50;;;;;;;21.03;37.62;101513.25;1711592;83;21035;-74
2022/05/08 08:42:31;;;;;;;5.20;2.70;;;;;;;21.04;37.63;101516.28;1711485;83;20993;-74
2022/05/08 08:48:06;;;;;;;4.78;2.60;;;;;;;21.04;37.63;101516.28;1711400;83;21070;-73
2022/05/08 08:50:33;;;;;;;5.60;2.65;;;;;;;21.04;37.61;101518.48;1711351;83;21120;-73
2022/05/08 08:53:04;;;;;;;4.85;2.65;;;;;;;21.03;37.59;101514.07;1711670;82;21054;-74
2022/05/08 08:55:35;;;;;;;4.20;2.40;;;;;;;21.04;37.60;101520.43;1682059;83;21097;-73
2022/05/08 08:58:00;;;;;;;6.90;2.90;;;;;;;21.04;37.56;101513.52;1710441;83;21042;-73
2022/05/08 09:00:27;;;;;;;3.98;2.30;;;;;;;21.04;37.55;101519.88;1711809;83;21673;-74
2022/05/08 09:02:55;;;;;;;3.40;2.35;;;;;;;21.03;37.55;101503.00;1711735;83;21235;-75
2022/05/08 09:05:23;;;;;;;3.02;2.27;;;;;;;21.05;37.53;101511.02;1711129;82;21488;-75
2022/05/08 09:07:54;;;;;;;3.65;2.35;;;;;;;21.04;37.53;101504.66;1711531;83;21427;-73
2022/05/08 09:10:26;;;;;;;4.72;2.27;;;;;;;21.04;37.43;101502.45;1711932;82;21062;-73
2022/05/08 09:13:02;;;;;;;4.45;2.60;;;;;;;21.04;37.44;101505.22;1711569;83;21046;-72
2022/05/08 09:15:36;;;;;;;3.83;2.50;;;;;;;21.05;37.38;101502.72;1711557;83;21322;-72
2022/05/08 09:18:06;;;;;;;5.50;2.30;;;;;;;21.05;37.38;101500.73;1711199;83;22068;-72
2022/05/08 09:20:48;;;;;;;3.80;2.33;;;;;;;21.04;37.28;101494.15;1711820;83;21469;-73
2022/05/08 09:23:21;;;;;;;3.85;2.70;;;;;;;21.03;37.25;101487.79;1711316;83;21552;-74
2022/05/08 09:26:00;;;;;;;3.15;2.10;;;;;;;21.04;37.26;101485.84;1711684;82;21007;-74
2022/05/08 09:28:30;;;;;;;4.30;2.35;;;;;;;21.04;37.20;101487.23;1711351;83;21186;-74
2022/05/08 09:31:09;;;;;;;4.60;2.12;;;;;;;21.04;37.19;101492.20;1710640;83;21102;-74
2022/05/08 09:33:45;;;;;;;5.58;2.72;;;;;;;21.04;37.14;101478.38;1702887;83;21054;-74
2022/05/08 09:36:17;;;;;;;3.20;2.08;;;;;;;21.03;37.08;101486.97;1687981;83;21067;-73
2022/05/08 09:38:54;;;;;;;3.92;2.20;;;;;;;21.03;37.06;101485.02;1663298;84;21079;-74
2022/05/08 09:41:28;;;;;;;3.58;2.33;;;;;;;21.03;37.06;101483.64;1688403;83;21545;-74
2022/05/08 09:43:57;;;;;;;4.05;2.40;;;;;;;21.04;37.01;101488.61;1687305;83;21505;-73
2022/05/08 09:46:29;;;;;;;3.55;2.27;;;;;;;21.03;36.94;101483.64;1686378;83;21522;-73
2022/05/08 09:48:56;;;;;;;3.22;2.37;;;;;;;21.03;36.90;101481.44;1687414;83;21056;-75
2022/05/08 09:51:22;;;;;;;4.87;2.47;;;;;;;21.02;36.93;101479.22;1687947;83;21489;-74
2022/05/08 09:53:49;;;;;;;4.45;2.50;;;;;;;21.02;36.94;101479.22;1664518;85;21051;-72
2022/05/08 09:56:15;;;;;;;4.03;2.20;;;;;;;21.03;36.90;101474.52;1669492;85;21058;-73
2022/05/08 09:58:43;;;;;;;3.98;2.30;;;;;;;21.04;36.96;101473.40;1687540;84;21103;-73
2022/05/08 10:01:09;;;;;;;5.33;2.70;;;;;;;21.03;36.94;101473.95;1687710;83;20963;-74
2022/05/08 10:03:36;;;;;;;2.90;2.02;;;;;;;21.03;36.94;101462.06;1687491;83;21055;-73
2022/05/08 10:06:02;;;;;;;4.60;2.70;;;;;;;21.04;36.89;101464.54;1687714;83;21137;-72
2022/05/08 10:08:36;;;;;;;3.75;2.12;;;;;;;21.05;36.87;101468.13;1687539;83;20980;-72
2022/05/08 10:13:58;;;;;;;4.33;2.42;;;;;;;21.03;36.81;101457.36;1670300;84;21068;-74
2022/05/08 10:16:48;;;;;;;4.20;2.52;;;;;;;21.04;36.79;101459.56;1675578;84;21059;-74
2022/05/08 10:19:28;;;;;;;4.83;2.45;;;;;;;21.05;36.75;101451.53;1687571;84;21087;-73
2022/05/08 10:22:10;;;;;;;4.05;2.27;;;;;;;21.04;36.73;101451.27;1685939;84;21138;-73
2022/05/08 10:24:38;;;;;;;3.52;1.95;;;;;;;21.04;36.70;101454.03;1686369;83;21083;-74
2022/05/08 10:27:18;;;;;;;3.33;2.30;;;;;;;21.03;36.69;101449.06;1687561;84;21267;-73
2022/05/08 10:29:56;;;;;;;3.60;2.35;;;;;;;21.04;36.68;101449.33;1687837;84;21130;-72
2022/05/08 10:32:42;;;;;;;3.65;2.00;;;;;;;21.04;36.68;101452.65;1687906;83;21577;-73
2022/05/08 10:35:25;;;;;;;3.10;2.20;;;;;;;21.04;36.66;101451.27;1687627;83;21067;-72
2022/05/08 10:38:08;;;;;;;3.40;2.00;;;;;;;21.03;36.62;101446.29;1685866;83;21070;-73
2022/05/08 10:40:35;;;;;;;4.28;2.12;;;;;;;21.03;36.61;101443.52;1685179;84;21519;-73
2022/05/08 10:43:25;;;;;;;4.15;2.62;;;;;;;21.02;36.57;101443.26;1687541;83;21075;-73
2022/05/08 10:45:48;;;;;;;3.62;2.17;;;;;;;21.03;36.57;101442.70;1686908;83;21210;-73
2022/05/08 10:48:16;;;;;;;5.53;2.62;;;;;;;21.02;36.57;101440.49;1687460;85;21103;-72
2022/05/08 10:50:48;;;;;;;4.58;1.80;;;;;;;21.03;36.59;101430.25;1687880;83;21126;-73
2022/05/08 10:53:32;;;;;;;4.28;2.00;;;;;;;21.02;36.59;101436.34;1687736;83;21105;-74
2022/05/08 10:56:05;;;;;;;3.20;2.02;;;;;;;21.03;36.60;101432.45;1687506;83;21020;-74
2022/05/08 10:58:34;;;;;;;6.83;2.35;;;;;;;21.02;36.61;101423.89;1687557;83;21703;-75
2022/05/08 11:01:04;;;;;;;3.20;1.98;;;;;;;21.03;36.60;101424.72;1687523;83;21015;-73
2022/05/08 11:03:30;;;;;;;5.22;2.20;;;;;;;21.03;36.61;101426.10;1687666;83;21056;-73
2022/05/08 11:05:57;;;;;;;2.72;1.90;;;;;;;21.02;36.60;101422.52;1687733;85;21143;-74
2022/05/08 11:08:25;;;;;;;3.45;1.87;;;;;;;21.03;36.59;101417.24;1687444;83;21094;-74
2022/05/08 11:11:08;;;;;;;4.22;2.20;;;;;;;21.03;36.61;101415.86;1687747;85;21042;-74
2022/05/08 11:13:48;;;;;;;3.60;1.87;;;;;;;21.04;36.61;101414.74;1683602;84;21483;-74
2022/05/08 11:16:33;;;;;;;3.98;1.90;;;;;;;21.03;36.60;101414.48;1687803;83;21542;-74
2022/05/08 11:18:58;;;;;;;4.70;2.47;;;;;;;21.04;36.58;101409.77;1687054;84;21050;-73
2022/05/08 11:21:26;;;;;;;4.83;2.40;;;;;;;21.04;36.58;101402.29;1687865;83;21680;-73
2022/05/08 11:23:54;;;;;;;3.37;2.15;;;;;;;21.04;36.59;101411.97;1687672;83;21235;-75
2022/05/08 11:26:29;;;;;;;4.72;1.80;;;;;;;21.04;36.59;101405.62;1687376;83;21169;-73
2022/05/08 11:28:57;;;;;;;5.05;2.98;;;;;;;21.04;36.60;101397.32;1667967;85;21059;-73
2022/05/08 11:31:28;;;;;;;3.45;2.00;;;;;;;21.04;36.62;101400.09;1687496;83;21084;-74
2022/05/08 11:36:40;;;;;;;3.47;2.00;;;;;;;21.04;36.90;101398.14;1701207;83;21398;-73
2022/05/08 11:39:15;;;;;;;3.58;2.12;;;;;;;21.04;36.61;101395.38;1688529;83;21067;-73
2022/05/08 11:41:44;;;;;;;3.10;1.98;;;;;;;21.05;36.62;101390.67;1689688;84;21110;-73
2022/05/08 11:44:21;;;;;;;3.85;2.12;;;;;;;21.05;36.63;101387.90;1669087;85;21102;-73
2022/05/08 11:46:54;;;;;;;4.72;2.45;;;;;;;21.05;36.61;101389.28;1687672;83;21078;-73
2022/05/08 11:49:29;;;;;;;4.40;2.20;;;;;;;21.05;36.65;101384.55;1687483;83;21275;-73
2022/05/08 11:51:57;;;;;;;2.50;1.52;;;;;;;21.05;36.62;101383.16;1688012;84;21024;-73